Squall — ZCIF2 — position and weather

sailwx.info

Track history (hours):
 
Tides and Currents Weather Stations Pressure Air Temp Water Temp Dewpoint Dewpoint Depression Visibility Wind Speed Wind Dir Waves Ship Positions

Squall

Last reported at 2017-Jul-23 18:30 UTC. Time now 2017-Jul-23 18:46 UTC.
Position N 62°03' E 005°19'.

Length 53 m; draft 5 m.

Type: Pleasure craft. MMSI: 319811000.

Date/timePositionNaut miles runAvg speedWind from/ knotsBaromVisibWave heightAir tempDewpointWater temp
2017-Jul-23 18:30N 62°03' E 005°19'0 0.0
2017-Jul-23 18:00N 62°03' E 005°19'0 0.0
2017-Jul-23 17:30N 62°03' E 005°19'0 0.0
2017-Jul-23 17:00N 62°03' E 005°19'0 0.0
2017-Jul-23 16:27N 62°03' E 005°19'0 0.0
2017-Jul-23 16:00N 62°03' E 005°19'0 0.0
2017-Jul-23 15:30N 62°03' E 005°19'0 0.0
2017-Jul-23 15:00N 62°03' E 005°19'0 0.0
2017-Jul-23 14:30N 62°03' E 005°19'0 0.0
2017-Jul-23 14:00N 62°03' E 005°19'0 0.0
2017-Jul-23 13:30N 62°03' E 005°19'0 0.0
2017-Jul-23 13:00N 62°03' E 005°19'0 0.0
2017-Jul-23 12:30N 62°03' E 005°19'3 6.5
2017-Jul-23 12:00N 62°04' E 005°13'5 9.5
2017-Jul-23 11:30N 62°07' E 005°05'2 3.5
2017-Jul-23 11:00N 62°09' E 005°05'3 7.2
2017-Jul-23 10:31N 62°12' E 005°04'4 8.4
2017-Jul-23 10:00N 62°13' E 005°13'4 8.0
2017-Jul-23 09:30N 62°11' E 005°20'1 2.8
2017-Jul-23 09:00N 62°11' E 005°23'0 0.0
2017-Jul-23 08:30N 62°11' E 005°23'0 0.0
2017-Jul-23 08:00N 62°11' E 005°23'0 0.0
2017-Jul-23 07:30N 62°11' E 005°23'1 1.6
2017-Jul-23 06:59N 62°11' E 005°25'4 8.9
2017-Jul-23 06:30N 62°11' E 005°34'510.1
2017-Jul-23 05:59N 62°12' E 005°45'4 7.3
2017-Jul-23 05:29N 62°14' E 005°52'0 0.0
2017-Jul-23 04:59N 62°14' E 005°52'0 0.0
2017-Jul-23 04:29N 62°14' E 005°52'0 0.0
2017-Jul-23 03:59N 62°14' E 005°52'0 0.0
2017-Jul-23 03:29N 62°14' E 005°52'0 0.0
2017-Jul-23 02:59N 62°14' E 005°52'0 0.0
2017-Jul-23 02:29N 62°14' E 005°52'0 0.0
2017-Jul-23 01:59N 62°14' E 005°52'0 0.0
2017-Jul-23 01:29N 62°14' E 005°52'0 0.0
2017-Jul-23 00:59N 62°14' E 005°52'0 0.0
2017-Jul-23 00:23N 62°14' E 005°52'0 0.0
2017-Jul-22 23:59N 62°14' E 005°52'0 0.0
2017-Jul-22 23:26N 62°14' E 005°52'0 0.0
2017-Jul-22 22:59N 62°14' E 005°52'0 0.0
2017-Jul-22 22:29N 62°14' E 005°52'0 0.0
2017-Jul-22 21:59N 62°14' E 005°52'0 0.0
2017-Jul-22 21:29N 62°14' E 005°52'0 0.0
2017-Jul-22 20:59N 62°14' E 005°52'0 0.0
2017-Jul-22 20:29N 62°14' E 005°52'0 0.0
2017-Jul-22 19:56N 62°14' E 005°52'2 4.9
2017-Jul-22 19:29N 62°15' E 005°56'611.9
2017-Jul-22 19:00N 62°19' E 006°05'611.5
2017-Jul-22 18:30N 62°23' E 006°14'4 7.4
2017-Jul-22 18:00N 62°25' E 006°21'1 2.5
2017-Jul-22 17:28N 62°26' E 006°23'0 0.0
2017-Jul-22 16:58N 62°26' E 006°23'0 0.0
2017-Jul-22 16:28N 62°26' E 006°23'3 6.1
2017-Jul-22 16:00N 62°25' E 006°29'611.4
2017-Jul-22 15:31N 62°27' E 006°41'510.3
2017-Jul-22 15:00N 62°26' E 006°52'10 9.8
2017-Jul-22 14:00N 62°17' E 007°01'510.8
2017-Jul-22 13:30N 62°12' E 007°02'510.7
2017-Jul-22 13:00N 62°07' E 006°58'5 9.4
2017-Jul-22 12:30N 62°07' E 007°08'2 4.0
2017-Jul-22 11:59N 62°06' E 007°12'0 0.0
2017-Jul-22 11:29N 62°06' E 007°12'0 0.0
2017-Jul-22 10:59N 62°06' E 007°12'0 0.0
2017-Jul-22 10:29N 62°06' E 007°12'0 0.0
2017-Jul-22 09:59N 62°06' E 007°12'0 0.2
2017-Jul-22 09:30N 62°06' E 007°12'1 2.3
2017-Jul-22 09:00N 62°07' E 007°10'4 7.1
2017-Jul-22 08:30N 62°06' E 007°03'4 7.4
2017-Jul-22 08:00N 62°09' E 006°59'510.9
2017-Jul-22 07:30N 62°14' E 007°01'510.8
2017-Jul-22 07:00N 62°19' E 006°58'511.0
2017-Jul-22 06:30N 62°25' E 006°55'510.7
2017-Jul-22 06:00N 62°27' E 006°45'2 4.6
2017-Jul-22 05:29N 62°29' E 006°42'0 0.0
2017-Jul-22 04:59N 62°29' E 006°43'0 0.0
2017-Jul-22 04:29N 62°29' E 006°42'0 0.0
2017-Jul-22 03:59N 62°29' E 006°42'0 0.0
2017-Jul-22 03:29N 62°29' E 006°42'0 0.0
2017-Jul-22 02:59N 62°29' E 006°42'0 0.0
2017-Jul-22 02:29N 62°29' E 006°42'0 0.0
2017-Jul-22 01:59N 62°29' E 006°42'0 0.0
2017-Jul-22 01:29N 62°29' E 006°42'0 0.0
2017-Jul-22 00:59N 62°29' E 006°42'0 0.0
2017-Jul-22 00:29N 62°29' E 006°42'0 0.0
2017-Jul-21 23:59N 62°29' E 006°42'0 0.0
2017-Jul-21 23:29N 62°29' E 006°42'0 0.0
2017-Jul-21 22:59N 62°29' E 006°42'0 0.0
2017-Jul-21 22:29N 62°29' E 006°42'0 0.0
2017-Jul-21 21:59N 62°29' E 006°42'0 0.0
2017-Jul-21 21:30N 62°29' E 006°43'3 6.6
2017-Jul-21 21:00N 62°27' E 006°37'510.7
2017-Jul-21 20:30N 62°25' E 006°26'510.6
2017-Jul-21 20:00N 62°24' E 006°15'510.2
2017-Jul-21 19:30N 62°25' E 006°04'4 7.6
2017-Jul-21 19:00N 62°27' E 006°10'1 1.7
2017-Jul-21 18:28N 62°28' E 006°09'0 0.0
2017-Jul-21 17:58N 62°28' E 006°09'0 0.0
2017-Jul-21 17:28N 62°28' E 006°09'0 0.0
2017-Jul-21 16:58N 62°28' E 006°09'0 0.0
2017-Jul-21 16:28N 62°28' E 006°09'0 0.0
2017-Jul-21 15:58N 62°28' E 006°09'0 0.0
2017-Jul-21 15:28N 62°28' E 006°09'0 0.0
2017-Jul-21 14:58N 62°28' E 006°09'0 0.0
2017-Jul-21 14:28N 62°28' E 006°09'0 0.0
2017-Jul-21 13:55N 62°28' E 006°09'0 0.0
2017-Jul-21 13:28N 62°28' E 006°09'0 0.0
2017-Jul-21 12:58N 62°28' E 006°09'0 0.0
2017-Jul-21 12:28N 62°28' E 006°09'0 0.0
2017-Jul-21 11:58N 62°28' E 006°09'0 0.0
2017-Jul-21 11:28N 62°28' E 006°09'0 0.0
2017-Jul-21 10:58N 62°28' E 006°09'0 0.0
2017-Jul-21 10:25N 62°28' E 006°09'0 0.0
2017-Jul-21 09:58N 62°28' E 006°09'0 0.0
2017-Jul-21 09:28N 62°28' E 006°09'0 0.0
2017-Jul-21 08:58N 62°28' E 006°09'0 0.0
2017-Jul-21 08:28N 62°28' E 006°09'0 0.0
2017-Jul-21 07:58N 62°28' E 006°09'0 0.0
2017-Jul-21 07:28N 62°28' E 006°09'0 0.0
2017-Jul-21 06:58N 62°28' E 006°09'0 0.0
2017-Jul-21 06:28N 62°28' E 006°09'0 0.0
2017-Jul-21 05:58N 62°28' E 006°09'0 0.0
2017-Jul-21 05:28N 62°28' E 006°09'0 0.0
2017-Jul-21 04:55N 62°28' E 006°09'0 0.0
2017-Jul-21 04:28N 62°28' E 006°09'0 0.0
2017-Jul-21 03:58N 62°28' E 006°09'0 0.0
2017-Jul-21 03:28N 62°28' E 006°09'0 0.0
2017-Jul-21 02:58N 62°28' E 006°09'0 0.0
2017-Jul-21 02:28N 62°28' E 006°09'0 0.0
2017-Jul-21 01:58N 62°28' E 006°09'0 0.0
2017-Jul-21 01:28N 62°28' E 006°09'0 0.0
2017-Jul-21 00:58N 62°28' E 006°09'0 0.0
2017-Jul-21 00:28N 62°28' E 006°09'0 0.0
2017-Jul-20 23:58N 62°28' E 006°09'0 0.0
2017-Jul-20 23:28N 62°28' E 006°09'0 0.0
2017-Jul-20 22:58N 62°28' E 006°09'0 0.0
2017-Jul-20 22:28N 62°28' E 006°09'0 0.0
2017-Jul-20 21:58N 62°28' E 006°09'0 0.0
2017-Jul-20 21:28N 62°28' E 006°09'0 0.0
2017-Jul-20 20:58N 62°28' E 006°09'0 0.0
2017-Jul-20 20:28N 62°28' E 006°09'0 0.0
2017-Jul-20 19:58N 62°28' E 006°09'0 0.0
2017-Jul-20 19:28N 62°28' E 006°09'0 0.0
2017-Jul-20 18:58N 62°28' E 006°09'0 0.0
2017-Jul-20 18:28N 62°28' E 006°09'0 0.0
2017-Jul-20 17:58N 62°28' E 006°09'0 0.0
2017-Jul-20 17:28N 62°28' E 006°09'0 0.0
2017-Jul-20 16:58N 62°28' E 006°09'0 0.0
2017-Jul-20 16:28N 62°28' E 006°09'0 0.0
2017-Jul-20 15:58N 62°28' E 006°09'0 0.0
2017-Jul-20 15:28N 62°28' E 006°09'0 0.0
2017-Jul-20 14:55N 62°28' E 006°09'0 0.0
2017-Jul-20 13:58N 62°28' E 006°09'0 0.0
2017-Jul-20 13:28N 62°28' E 006°09'0 0.0
2017-Jul-20 12:58N 62°28' E 006°09'0 0.0
2017-Jul-20 12:28N 62°28' E 006°09'0 0.0
2017-Jul-20 11:58N 62°28' E 006°09'0 0.0
2017-Jul-20 11:28N 62°28' E 006°09'0 0.0
2017-Jul-20 10:58N 62°28' E 006°09'0 0.0
2017-Jul-20 10:28N 62°28' E 006°09'0 0.0
2017-Jul-20 09:58N 62°28' E 006°09'0 0.0
2017-Jul-20 09:28N 62°28' E 006°09'0 0.0
2017-Jul-20 08:58N 62°28' E 006°09'0 0.0
2017-Jul-20 08:28N 62°28' E 006°09'0 0.0
2017-Jul-20 07:58N 62°28' E 006°09'0 0.0
2017-Jul-20 07:28N 62°28' E 006°09'0 0.0
2017-Jul-20 06:58N 62°28' E 006°09'0 0.0
2017-Jul-20 06:28N 62°28' E 006°09'0 0.0
2017-Jul-20 05:58N 62°28' E 006°09'0 0.0
2017-Jul-20 05:28N 62°28' E 006°09'0 0.0
2017-Jul-20 04:58N 62°28' E 006°09'0 0.0
2017-Jul-20 04:28N 62°28' E 006°09'0 0.0
2017-Jul-20 03:58N 62°28' E 006°09'0 0.0
2017-Jul-20 03:28N 62°28' E 006°09'0 0.0
2017-Jul-20 02:58N 62°28' E 006°09'0 0.0
2017-Jul-20 02:28N 62°28' E 006°09'0 0.0
2017-Jul-20 01:58N 62°28' E 006°09'0 0.0
2017-Jul-20 01:28N 62°28' E 006°09'0 0.0
2017-Jul-20 00:58N 62°28' E 006°09'0 0.0
2017-Jul-20 00:28N 62°28' E 006°09'0 0.0
2017-Jul-19 23:58N 62°28' E 006°09'0 0.0
2017-Jul-19 23:28N 62°28' E 006°09'0 0.0
2017-Jul-19 22:58N 62°28' E 006°09'0 0.0
2017-Jul-19 22:28N 62°28' E 006°09'0 0.0
2017-Jul-19 21:58N 62°28' E 006°09'0 0.0
2017-Jul-19 21:28N 62°28' E 006°09'0 0.0
2017-Jul-19 20:58N 62°28' E 006°09'0 0.0
2017-Jul-19 20:28N 62°28' E 006°09'0 0.0
2017-Jul-19 19:58N 62°28' E 006°09'0 0.0
2017-Jul-19 19:28N 62°28' E 006°09'0 0.0
2017-Jul-19 19:00N 62°28' E 006°09'1 2.8
2017-Jul-19 18:30N 62°27' E 006°08'3 6.5
2017-Jul-19 18:00N 62°30' E 006°09'510.1
2017-Jul-19 17:31N 62°35' E 006°13'611.6
2017-Jul-19 17:00N 62°38' E 006°23'612.0
2017-Jul-19 16:30N 62°43' E 006°30'612.0
2017-Jul-19 16:00N 62°48' E 006°37'611.9
2017-Jul-19 15:31N 62°54' E 006°44'611.8
2017-Jul-19 15:00N 62°58' E 006°52'611.4
2017-Jul-19 14:30N 63°00' E 007°03'611.5
2017-Jul-19 14:01N 63°02' E 007°15'611.7
2017-Jul-19 13:31N 63°05' E 007°27'611.7
2017-Jul-19 13:01N 63°09' E 007°37'611.6
2017-Jul-19 12:31N 63°12' E 007°48'611.4
2017-Jul-19 12:01N 63°14' E 007°59'611.5
2017-Jul-19 11:30N 63°17' E 008°11'611.3
2017-Jul-19 11:00N 63°21' E 008°20'611.1
2017-Jul-19 10:31N 63°24' E 008°30'611.2
2017-Jul-19 10:00N 63°26' E 008°42'611.3
2017-Jul-19 09:30N 63°28' E 008°54'611.3
2017-Jul-19 09:00N 63°30' E 009°06'510.6
2017-Jul-19 08:30N 63°33' E 009°15'511.1
2017-Jul-19 08:01N 63°39' E 009°16'611.1
2017-Jul-19 07:30N 63°44' E 009°16'510.8
2017-Jul-19 07:00N 63°49' E 009°19'510.9
2017-Jul-19 06:31N 63°54' E 009°24'611.0
2017-Jul-19 06:00N 63°59' E 009°30'611.4
2017-Jul-19 05:30N 64°04' E 009°38'611.1
2017-Jul-19 05:00N 64°08' E 009°46'611.2
2017-Jul-19 04:30N 64°12' E 009°56'611.1
2017-Jul-19 04:00N 64°16' E 010°04'510.7
2017-Jul-19 03:31N 64°21' E 010°09'510.9
2017-Jul-19 03:00N 64°26' E 010°15'611.3
2017-Jul-19 02:30N 64°31' E 010°19'611.4
2017-Jul-19 02:00N 64°37' E 010°21'611.4
2017-Jul-19 01:30N 64°42' E 010°22'611.5
2017-Jul-19 01:00N 64°48' E 010°23'611.5
2017-Jul-19 00:30N 64°54' E 010°26'611.1
2017-Jul-19 00:00N 64°59' E 010°30'611.2
2017-Jul-18 23:30N 65°03' E 010°37'611.0
2017-Jul-18 23:00N 65°08' E 010°46'510.8
2017-Jul-18 22:30N 65°10' E 010°58'510.9
2017-Jul-18 22:00N 65°13' E 011°08'611.1
2017-Jul-18 21:30N 65°18' E 011°16'611.3
2017-Jul-18 21:00N 65°22' E 011°23'611.1
2017-Jul-18 20:30N 65°26' E 011°34'611.1
2017-Jul-18 20:00N 65°29' E 011°45'611.2
2017-Jul-18 19:30N 65°32' E 011°56'611.3
2017-Jul-18 19:00N 65°35' E 012°08'611.5
2017-Jul-18 18:30N 65°40' E 012°14'611.6
2017-Jul-18 18:00N 65°46' E 012°18'611.4
2017-Jul-18 17:30N 65°51' E 012°22'510.7
2017-Jul-18 17:00N 65°56' E 012°24'611.2
2017-Jul-18 16:30N 66°01' E 012°33'611.3
2017-Jul-18 16:00N 66°05' E 012°41'611.1
2017-Jul-18 15:30N 66°10' E 012°49'611.1
2017-Jul-18 15:00N 66°15' E 012°54'1211.6
2017-Jul-18 14:00N 66°26' E 012°59'611.1
2017-Jul-18 13:30N 66°32' E 012°57'5 9.8
2017-Jul-18 13:00N 66°36' E 013°04'611.5
2017-Jul-18 12:30N 66°41' E 013°09'611.3
2017-Jul-18 12:00N 66°47' E 013°14'510.7
2017-Jul-18 11:30N 66°51' E 013°20'510.6
2017-Jul-18 11:00N 66°55' E 013°29'4 8.4
2017-Jul-18 10:30N 66°58' E 013°36'510.5
2017-Jul-18 10:00N 67°01' E 013°47'611.0
2017-Jul-18 09:30N 67°06' E 013°57'511.0
2017-Jul-18 09:00N 67°10' E 014°04'611.0
2017-Jul-18 08:30N 67°14' E 014°14'5 9.0
2017-Jul-18 08:00N 67°17' E 014°23'0 0.1
2017-Jul-18 07:30N 67°17' E 014°23'0 0.0
2017-Jul-18 07:00N 67°17' E 014°23'0 0.0
2017-Jul-18 06:30N 67°17' E 014°23'0 0.0
2017-Jul-18 05:59N 67°17' E 014°23'0 0.0
2017-Jul-18 05:30N 67°17' E 014°23'0 0.0
2017-Jul-18 05:00N 67°17' E 014°23'0 0.0
2017-Jul-18 04:30N 67°17' E 014°23'0 0.0
2017-Jul-18 04:00N 67°17' E 014°23'0 0.0
2017-Jul-18 03:30N 67°17' E 014°23'0 0.0
2017-Jul-18 03:00N 67°17' E 014°23'0 0.0
2017-Jul-18 02:29N 67°17' E 014°23'0 0.0
2017-Jul-18 01:59N 67°17' E 014°23'0 0.0
2017-Jul-18 01:29N 67°17' E 014°23'0 0.0
2017-Jul-18 00:59N 67°17' E 014°23'0 0.0
2017-Jul-18 00:30N 67°17' E 014°23'0 0.0
2017-Jul-18 00:00N 67°17' E 014°23'0 0.0
2017-Jul-17 23:30N 67°17' E 014°23'0 0.0
2017-Jul-17 23:00N 67°17' E 014°23'0 0.0
2017-Jul-17 22:30N 67°17' E 014°23'0 0.0
2017-Jul-17 22:00N 67°17' E 014°23'0 0.0
2017-Jul-17 21:29N 67°17' E 014°23'0 0.0
2017-Jul-17 21:00N 67°17' E 014°23'0 0.0
2017-Jul-17 20:29N 67°17' E 014°23'0 0.0
2017-Jul-17 19:59N 67°17' E 014°23'0 0.0
2017-Jul-17 19:29N 67°17' E 014°23'0 0.0
2017-Jul-17 18:59N 67°17' E 014°23'0 0.0
2017-Jul-17 18:29N 67°17' E 014°23'0 0.0
2017-Jul-17 17:59N 67°17' E 014°23'0 0.0
2017-Jul-17 17:29N 67°17' E 014°23'0 0.0
2017-Jul-17 16:59N 67°17' E 014°23'0 0.0
2017-Jul-17 16:29N 67°17' E 014°23'0 0.3
2017-Jul-17 16:00N 67°17' E 014°23'1 1.1
2017-Jul-17 15:28N 67°18' E 014°24'0 0.0
2017-Jul-17 14:58N 67°18' E 014°24'0 0.0
2017-Jul-17 14:28N 67°18' E 014°24'0 0.0
2017-Jul-17 13:58N 67°18' E 014°24'0 0.6
2017-Jul-17 13:30N 67°17' E 014°23'1 2.0
2017-Jul-17 13:00N 67°18' E 014°22'510.4
2017-Jul-17 12:31N 67°23' E 014°23'1 1.6
2017-Jul-17 11:59N 67°24' E 014°24'0 0.0
2017-Jul-17 11:29N 67°24' E 014°24'0 0.0
2017-Jul-17 10:59N 67°24' E 014°24'0 0.0
2017-Jul-17 10:29N 67°24' E 014°24'0 0.1
2017-Jul-17 09:59N 67°24' E 014°24'0 0.0
2017-Jul-17 09:30N 67°24' E 014°24'5 9.1
2017-Jul-17 09:00N 67°28' E 014°29'510.8
2017-Jul-17 08:30N 67°34' E 014°31'611.0
2017-Jul-17 08:00N 67°39' E 014°33'510.9
2017-Jul-17 07:30N 67°43' E 014°42'510.6
2017-Jul-17 07:00N 67°46' E 014°55'2 3.6
2017-Jul-17 06:30N 67°47' E 014°59'0 0.0
2017-Jul-17 06:00N 67°47' E 014°59'0 0.0
2017-Jul-17 05:30N 67°47' E 014°59'0 0.0
2017-Jul-17 05:00N 67°47' E 014°59'0 0.0
2017-Jul-17 04:30N 67°47' E 014°59'0 0.0
2017-Jul-17 03:57N 67°47' E 014°59'0 0.0
2017-Jul-17 03:27N 67°47' E 014°59'0 0.0
2017-Jul-17 03:00N 67°47' E 014°59'0 0.0
2017-Jul-17 02:30N 67°47' E 014°59'0 0.0
2017-Jul-17 02:00N 67°47' E 014°59'0 0.0
2017-Jul-17 01:30N 67°47' E 014°59'0 0.0
2017-Jul-17 01:00N 67°47' E 014°59'0 0.0
2017-Jul-17 00:30N 67°47' E 014°59'0 0.0
2017-Jul-17 00:00N 67°47' E 014°59'0 0.0
2017-Jul-16 23:30N 67°47' E 014°59'0 0.0
2017-Jul-16 23:00N 67°47' E 014°59'0 0.0
2017-Jul-16 22:30N 67°47' E 014°59'0 0.0
2017-Jul-16 22:00N 67°47' E 014°59'0 0.0
2017-Jul-16 21:30N 67°47' E 014°59'0 0.0
2017-Jul-16 21:00N 67°47' E 014°59'0 0.0
2017-Jul-16 20:27N 67°47' E 014°59'0 0.0
2017-Jul-16 20:00N 67°47' E 014°59'0 0.0
2017-Jul-16 19:30N 67°47' E 014°59'0 0.0
2017-Jul-16 18:57N 67°47' E 014°59'0 0.0
2017-Jul-16 18:27N 67°47' E 014°59'0 0.0
2017-Jul-16 18:00N 67°47' E 014°59'0 0.0
2017-Jul-16 17:30N 67°47' E 014°59'0 0.0
2017-Jul-16 16:59N 67°47' E 014°59'0 0.0
2017-Jul-16 16:30N 67°47' E 014°59'0 0.0
2017-Jul-16 16:00N 67°47' E 014°59'0 0.1
2017-Jul-16 15:30N 67°47' E 014°59'1 3.0
2017-Jul-16 15:00N 67°46' E 014°55'2 3.5
2017-Jul-16 14:30N 67°46' E 014°51'3 5.1
2017-Jul-16 14:00N 67°46' E 014°44'4 8.6
2017-Jul-16 13:30N 67°46' E 014°32'4 8.3
2017-Jul-16 13:00N 67°50' E 014°37'4 7.9
2017-Jul-16 12:30N 67°51' E 014°47'1 1.4
2017-Jul-16 11:58N 67°51' E 014°48'0 0.0
2017-Jul-16 11:28N 67°51' E 014°48'0 0.0
2017-Jul-16 10:58N 67°51' E 014°48'0 0.0
2017-Jul-16 10:28N 67°51' E 014°48'0 0.0
2017-Jul-16 09:58N 67°51' E 014°48'0 0.0
2017-Jul-16 09:28N 67°51' E 014°48'0 0.0
2017-Jul-16 08:58N 67°51' E 014°48'0 0.0
2017-Jul-16 08:28N 67°51' E 014°48'0 0.2
2017-Jul-16 08:00N 67°51' E 014°48'1 2.7
2017-Jul-16 07:30N 67°52' E 014°46'510.1
2017-Jul-16 07:00N 67°56' E 014°40'611.1
2017-Jul-16 06:30N 68°01' E 014°32'611.0
2017-Jul-16 06:00N 68°06' E 014°24'510.2
2017-Jul-16 05:30N 68°10' E 014°15'1 1.2
2017-Jul-16 04:58N 68°10' E 014°13'0 0.0
2017-Jul-16 04:31N 68°10' E 014°13'0 0.3
2017-Jul-16 03:57N 68°10' E 014°14'0 0.0
2017-Jul-16 03:31N 68°10' E 014°14'0 0.2
2017-Jul-16 03:00N 68°10' E 014°14'0 0.0
2017-Jul-16 02:27N 68°10' E 014°14'0 0.0
2017-Jul-16 02:01N 68°10' E 014°14'0 0.0
2017-Jul-16 01:30N 68°10' E 014°14'0 0.0
2017-Jul-16 01:00N 68°10' E 014°14'0 0.0
2017-Jul-16 00:30N 68°10' E 014°14'0 0.0
2017-Jul-16 00:00N 68°10' E 014°14'0 0.0
2017-Jul-15 23:30N 68°10' E 014°14'0 0.0
2017-Jul-15 23:00N 68°10' E 014°14'0 0.0
2017-Jul-15 22:30N 68°10' E 014°14'0 0.0
2017-Jul-15 22:00N 68°10' E 014°14'0 0.1
2017-Jul-15 21:30N 68°10' E 014°14'0 0.0
2017-Jul-15 21:00N 68°10' E 014°14'0 0.0
2017-Jul-15 20:30N 68°10' E 014°14'0 0.0
2017-Jul-15 20:00N 68°10' E 014°14'0 0.0
2017-Jul-15 19:30N 68°10' E 014°14'0 0.0
2017-Jul-15 19:00N 68°10' E 014°14'0 0.0
2017-Jul-15 18:30N 68°10' E 014°14'0 0.0
2017-Jul-15 18:00N 68°10' E 014°14'0 0.0
2017-Jul-15 17:30N 68°10' E 014°14'0 0.0
2017-Jul-15 17:00N 68°10' E 014°14'0 0.0
2017-Jul-15 16:30N 68°10' E 014°14'0 0.0
2017-Jul-15 16:00N 68°10' E 014°14'0 0.0
2017-Jul-15 15:30N 68°10' E 014°14'0 0.0
2017-Jul-15 15:00N 68°10' E 014°14'0 0.0
2017-Jul-15 14:00N 68°10' E 014°14'0 0.0
2017-Jul-15 13:30N 68°10' E 014°14'0 0.0
2017-Jul-15 13:00N 68°10' E 014°14'0 0.0
2017-Jul-15 12:30N 68°10' E 014°14'0 0.0
2017-Jul-15 12:00N 68°10' E 014°14'0 0.0
2017-Jul-15 11:30N 68°10' E 014°14'0 0.0
2017-Jul-15 11:00N 68°10' E 014°14'0 0.0
2017-Jul-15 10:30N 68°10' E 014°14'0 0.0
2017-Jul-15 10:00N 68°10' E 014°14'0 0.0
2017-Jul-15 09:30N 68°10' E 014°14'0 0.0
2017-Jul-15 09:00N 68°10' E 014°14'0 0.0
2017-Jul-15 08:30N 68°10' E 014°14'0 0.0
2017-Jul-15 08:00N 68°10' E 014°14'0 0.0
2017-Jul-15 07:30N 68°10' E 014°14'0 0.0
2017-Jul-15 07:00N 68°10' E 014°14'0 0.0
2017-Jul-15 06:30N 68°10' E 014°14'0 0.0
2017-Jul-15 06:00N 68°10' E 014°14'0 0.0
2017-Jul-15 05:30N 68°10' E 014°14'0 0.0
2017-Jul-15 05:00N 68°10' E 014°14'0 0.0
2017-Jul-15 04:30N 68°10' E 014°14'0 0.0
2017-Jul-15 04:00N 68°10' E 014°14'0 0.0
2017-Jul-15 03:30N 68°10' E 014°14'0 0.0
2017-Jul-15 03:00N 68°10' E 014°14'0 0.0
2017-Jul-15 02:30N 68°10' E 014°14'0 0.0
2017-Jul-15 02:00N 68°10' E 014°14'0 0.0
2017-Jul-15 01:30N 68°10' E 014°14'0 0.0
2017-Jul-15 01:00N 68°10' E 014°14'0 0.0
2017-Jul-15 00:30N 68°10' E 014°14'0 0.0
2017-Jul-15 00:00N 68°10' E 014°14'0 0.0
2017-Jul-14 23:30N 68°10' E 014°14'0 0.0
2017-Jul-14 23:00N 68°10' E 014°14'0 0.0
2017-Jul-14 22:30N 68°10' E 014°14'0 0.0
2017-Jul-14 22:00N 68°10' E 014°14'0 0.0
2017-Jul-14 21:30N 68°10' E 014°14'0 0.0
2017-Jul-14 21:00N 68°10' E 014°14'0 0.0
2017-Jul-14 20:30N 68°10' E 014°14'0 0.0
2017-Jul-14 20:00N 68°10' E 014°14'0 0.0
2017-Jul-14 19:30N 68°10' E 014°14'0 0.0
2017-Jul-14 19:00N 68°10' E 014°14'0 0.0
2017-Jul-14 18:30N 68°10' E 014°14'0 0.0
2017-Jul-14 18:00N 68°10' E 014°14'0 0.2
2017-Jul-14 17:30N 68°10' E 014°14'4 7.6
2017-Jul-14 17:00N 68°07' E 014°07'510.7
2017-Jul-14 16:30N 68°05' E 013°54'611.0
2017-Jul-14 16:00N 68°04' E 013°40'4 8.5
2017-Jul-14 15:30N 68°07' E 013°34'0 0.1
2017-Jul-14 14:59N 68°07' E 013°33'1 2.5
2017-Jul-14 14:30N 68°07' E 013°36'5 9.7
2017-Jul-14 14:00N 68°02' E 013°32'11 2.8
2017-Jul-14 09:58N 67°56' E 013°06'4 7.8
2017-Jul-14 09:30N 67°54' E 013°12'510.7
2017-Jul-14 09:01N 67°49' E 013°21'510.6
2017-Jul-14 08:30N 67°45' E 013°30'510.9
2017-Jul-14 08:00N 67°41' E 013°39'510.8
2017-Jul-14 07:30N 67°37' E 013°49'510.6
2017-Jul-14 07:00N 67°33' E 013°58'510.4
2017-Jul-14 06:30N 67°29' E 014°06'5 9.9
2017-Jul-14 06:01N 67°24' E 014°08'510.6
2017-Jul-14 05:31N 67°20' E 014°15'4 7.3
2017-Jul-14 05:00N 67°17' E 014°22'1 1.4
2017-Jul-14 04:31N 67°18' E 014°24'0 0.0
2017-Jul-14 04:01N 67°18' E 014°24'0 0.0
2017-Jul-14 03:31N 67°18' E 014°24'0 0.0
2017-Jul-14 03:00N 67°18' E 014°24'0 0.0
2017-Jul-14 02:31N 67°18' E 014°24'0 0.0
2017-Jul-14 02:01N 67°18' E 014°24'0 0.0
2017-Jul-14 01:31N 67°18' E 014°24'0 0.0
2017-Jul-14 01:01N 67°18' E 014°24'0 0.0
2017-Jul-14 00:31N 67°18' E 014°24'0 0.0
2017-Jul-14 00:01N 67°18' E 014°24'0 0.0
2017-Jul-13 23:31N 67°18' E 014°24'0 0.0
2017-Jul-13 23:00N 67°18' E 014°24'0 0.0
2017-Jul-13 22:31N 67°18' E 014°24'0 0.0
2017-Jul-13 22:01N 67°18' E 014°24'0 0.0
2017-Jul-13 21:31N 67°18' E 014°24'0 0.0
2017-Jul-13 21:00N 67°18' E 014°24'0 0.0
2017-Jul-13 20:30N 67°18' E 014°24'0 0.0
2017-Jul-13 20:01N 67°18' E 014°24'0 0.0
2017-Jul-13 19:31N 67°18' E 014°24'0 0.0
2017-Jul-13 19:01N 67°18' E 014°24'0 0.0
2017-Jul-13 18:30N 67°18' E 014°24'  
Track history (hours):
 
Tides and Currents Weather Stations Pressure Air Temp Water Temp Dewpoint Dewpoint Depression Visibility Wind Speed Wind Dir Waves Ship Positions

Squall

Last reported at 2017-Jul-23 18:30 UTC. Time now 2017-Jul-23 18:46 UTC.
Position N 62°03' E 005°19'.

Length 53 m; draft 5 m.

Type: Pleasure craft. MMSI: 319811000.

Date/timePositionNaut miles runAvg speedWind from/ knotsBaromVisibWave heightAir tempDewpointWater temp
2017-Jul-23 18:30N 62°03' E 005°19'0 0.0
2017-Jul-23 18:00N 62°03' E 005°19'0 0.0
2017-Jul-23 17:30N 62°03' E 005°19'0 0.0
2017-Jul-23 17:00N 62°03' E 005°19'0 0.0
2017-Jul-23 16:27N 62°03' E 005°19'0 0.0
2017-Jul-23 16:00N 62°03' E 005°19'0 0.0
2017-Jul-23 15:30N 62°03' E 005°19'0 0.0
2017-Jul-23 15:00N 62°03' E 005°19'0 0.0
2017-Jul-23 14:30N 62°03' E 005°19'0 0.0
2017-Jul-23 14:00N 62°03' E 005°19'0 0.0
2017-Jul-23 13:30N 62°03' E 005°19'0 0.0
2017-Jul-23 13:00N 62°03' E 005°19'0 0.0
2017-Jul-23 12:30N 62°03' E 005°19'3 6.5
2017-Jul-23 12:00N 62°04' E 005°13'5 9.5
2017-Jul-23 11:30N 62°07' E 005°05'2 3.5
2017-Jul-23 11:00N 62°09' E 005°05'3 7.2
2017-Jul-23 10:31N 62°12' E 005°04'4 8.4
2017-Jul-23 10:00N 62°13' E 005°13'4 8.0
2017-Jul-23 09:30N 62°11' E 005°20'1 2.8
2017-Jul-23 09:00N 62°11' E 005°23'0 0.0
2017-Jul-23 08:30N 62°11' E 005°23'0 0.0
2017-Jul-23 08:00N 62°11' E 005°23'0 0.0
2017-Jul-23 07:30N 62°11' E 005°23'1 1.6
2017-Jul-23 06:59N 62°11' E 005°25'4 8.9
2017-Jul-23 06:30N 62°11' E 005°34'510.1
2017-Jul-23 05:59N 62°12' E 005°45'4 7.3
2017-Jul-23 05:29N 62°14' E 005°52'0 0.0
2017-Jul-23 04:59N 62°14' E 005°52'0 0.0
2017-Jul-23 04:29N 62°14' E 005°52'0 0.0
2017-Jul-23 03:59N 62°14' E 005°52'0 0.0
2017-Jul-23 03:29N 62°14' E 005°52'0 0.0
2017-Jul-23 02:59N 62°14' E 005°52'0 0.0
2017-Jul-23 02:29N 62°14' E 005°52'0 0.0
2017-Jul-23 01:59N 62°14' E 005°52'0 0.0
2017-Jul-23 01:29N 62°14' E 005°52'0 0.0
2017-Jul-23 00:59N 62°14' E 005°52'0 0.0
2017-Jul-23 00:23N 62°14' E 005°52'0 0.0
2017-Jul-22 23:59N 62°14' E 005°52'0 0.0
2017-Jul-22 23:26N 62°14' E 005°52'0 0.0
2017-Jul-22 22:59N 62°14' E 005°52'0 0.0
2017-Jul-22 22:29N 62°14' E 005°52'0 0.0
2017-Jul-22 21:59N 62°14' E 005°52'0 0.0
2017-Jul-22 21:29N 62°14' E 005°52'0 0.0
2017-Jul-22 20:59N 62°14' E 005°52'0 0.0
2017-Jul-22 20:29N 62°14' E 005°52'0 0.0
2017-Jul-22 19:56N 62°14' E 005°52'2 4.9
2017-Jul-22 19:29N 62°15' E 005°56'611.9
2017-Jul-22 19:00N 62°19' E 006°05'611.5
2017-Jul-22 18:30N 62°23' E 006°14'4 7.4
2017-Jul-22 18:00N 62°25' E 006°21'1 2.5
2017-Jul-22 17:28N 62°26' E 006°23'0 0.0
2017-Jul-22 16:58N 62°26' E 006°23'0 0.0
2017-Jul-22 16:28N 62°26' E 006°23'3 6.1
2017-Jul-22 16:00N 62°25' E 006°29'611.4
2017-Jul-22 15:31N 62°27' E 006°41'510.3
2017-Jul-22 15:00N 62°26' E 006°52'10 9.8
2017-Jul-22 14:00N 62°17' E 007°01'510.8
2017-Jul-22 13:30N 62°12' E 007°02'510.7
2017-Jul-22 13:00N 62°07' E 006°58'5 9.4
2017-Jul-22 12:30N 62°07' E 007°08'2 4.0
2017-Jul-22 11:59N 62°06' E 007°12'0 0.0
2017-Jul-22 11:29N 62°06' E 007°12'0 0.0
2017-Jul-22 10:59N 62°06' E 007°12'0 0.0
2017-Jul-22 10:29N 62°06' E 007°12'0 0.0
2017-Jul-22 09:59N 62°06' E 007°12'0 0.2
2017-Jul-22 09:30N 62°06' E 007°12'1 2.3
2017-Jul-22 09:00N 62°07' E 007°10'4 7.1
2017-Jul-22 08:30N 62°06' E 007°03'4 7.4
2017-Jul-22 08:00N 62°09' E 006°59'510.9
2017-Jul-22 07:30N 62°14' E 007°01'510.8
2017-Jul-22 07:00N 62°19' E 006°58'511.0
2017-Jul-22 06:30N 62°25' E 006°55'510.7
2017-Jul-22 06:00N 62°27' E 006°45'2 4.6
2017-Jul-22 05:29N 62°29' E 006°42'0 0.0
2017-Jul-22 04:59N 62°29' E 006°43'0 0.0
2017-Jul-22 04:29N 62°29' E 006°42'0 0.0
2017-Jul-22 03:59N 62°29' E 006°42'0 0.0
2017-Jul-22 03:29N 62°29' E 006°42'0 0.0
2017-Jul-22 02:59N 62°29' E 006°42'0 0.0
2017-Jul-22 02:29N 62°29' E 006°42'0 0.0
2017-Jul-22 01:59N 62°29' E 006°42'0 0.0
2017-Jul-22 01:29N 62°29' E 006°42'0 0.0
2017-Jul-22 00:59N 62°29' E 006°42'0 0.0
2017-Jul-22 00:29N 62°29' E 006°42'0 0.0
2017-Jul-21 23:59N 62°29' E 006°42'0 0.0
2017-Jul-21 23:29N 62°29' E 006°42'0 0.0
2017-Jul-21 22:59N 62°29' E 006°42'0 0.0
2017-Jul-21 22:29N 62°29' E 006°42'0 0.0
2017-Jul-21 21:59N 62°29' E 006°42'0 0.0
2017-Jul-21 21:30N 62°29' E 006°43'3 6.6
2017-Jul-21 21:00N 62°27' E 006°37'510.7
2017-Jul-21 20:30N 62°25' E 006°26'510.6
2017-Jul-21 20:00N 62°24' E 006°15'510.2
2017-Jul-21 19:30N 62°25' E 006°04'4 7.6
2017-Jul-21 19:00N 62°27' E 006°10'1 1.7
2017-Jul-21 18:28N 62°28' E 006°09'0 0.0
2017-Jul-21 17:58N 62°28' E 006°09'0 0.0
2017-Jul-21 17:28N 62°28' E 006°09'0 0.0
2017-Jul-21 16:58N 62°28' E 006°09'0 0.0
2017-Jul-21 16:28N 62°28' E 006°09'0 0.0
2017-Jul-21 15:58N 62°28' E 006°09'0 0.0
2017-Jul-21 15:28N 62°28' E 006°09'0 0.0
2017-Jul-21 14:58N 62°28' E 006°09'0 0.0
2017-Jul-21 14:28N 62°28' E 006°09'0 0.0
2017-Jul-21 13:55N 62°28' E 006°09'0 0.0
2017-Jul-21 13:28N 62°28' E 006°09'0 0.0
2017-Jul-21 12:58N 62°28' E 006°09'0 0.0
2017-Jul-21 12:28N 62°28' E 006°09'0 0.0
2017-Jul-21 11:58N 62°28' E 006°09'0 0.0
2017-Jul-21 11:28N 62°28' E 006°09'0 0.0
2017-Jul-21 10:58N 62°28' E 006°09'0 0.0
2017-Jul-21 10:25N 62°28' E 006°09'0 0.0
2017-Jul-21 09:58N 62°28' E 006°09'0 0.0
2017-Jul-21 09:28N 62°28' E 006°09'0 0.0
2017-Jul-21 08:58N 62°28' E 006°09'0 0.0
2017-Jul-21 08:28N 62°28' E 006°09'0 0.0
2017-Jul-21 07:58N 62°28' E 006°09'0 0.0
2017-Jul-21 07:28N 62°28' E 006°09'0 0.0
2017-Jul-21 06:58N 62°28' E 006°09'0 0.0
2017-Jul-21 06:28N 62°28' E 006°09'0 0.0
2017-Jul-21 05:58N 62°28' E 006°09'0 0.0
2017-Jul-21 05:28N 62°28' E 006°09'0 0.0
2017-Jul-21 04:55N 62°28' E 006°09'0 0.0
2017-Jul-21 04:28N 62°28' E 006°09'0 0.0
2017-Jul-21 03:58N 62°28' E 006°09'0 0.0
2017-Jul-21 03:28N 62°28' E 006°09'0 0.0
2017-Jul-21 02:58N 62°28' E 006°09'0 0.0
2017-Jul-21 02:28N 62°28' E 006°09'0 0.0
2017-Jul-21 01:58N 62°28' E 006°09'0 0.0
2017-Jul-21 01:28N 62°28' E 006°09'0 0.0
2017-Jul-21 00:58N 62°28' E 006°09'0 0.0
2017-Jul-21 00:28N 62°28' E 006°09'0 0.0
2017-Jul-20 23:58N 62°28' E 006°09'0 0.0
2017-Jul-20 23:28N 62°28' E 006°09'0 0.0
2017-Jul-20 22:58N 62°28' E 006°09'0 0.0
2017-Jul-20 22:28N 62°28' E 006°09'0 0.0
2017-Jul-20 21:58N 62°28' E 006°09'0 0.0
2017-Jul-20 21:28N 62°28' E 006°09'0 0.0
2017-Jul-20 20:58N 62°28' E 006°09'0 0.0
2017-Jul-20 20:28N 62°28' E 006°09'0 0.0
2017-Jul-20 19:58N 62°28' E 006°09'0 0.0
2017-Jul-20 19:28N 62°28' E 006°09'0 0.0
2017-Jul-20 18:58N 62°28' E 006°09'0 0.0
2017-Jul-20 18:28N 62°28' E 006°09'0 0.0
2017-Jul-20 17:58N 62°28' E 006°09'0 0.0
2017-Jul-20 17:28N 62°28' E 006°09'0 0.0
2017-Jul-20 16:58N 62°28' E 006°09'0 0.0
2017-Jul-20 16:28N 62°28' E 006°09'0 0.0
2017-Jul-20 15:58N 62°28' E 006°09'0 0.0
2017-Jul-20 15:28N 62°28' E 006°09'0 0.0
2017-Jul-20 14:55N 62°28' E 006°09'0 0.0
2017-Jul-20 13:58N 62°28' E 006°09'0 0.0
2017-Jul-20 13:28N 62°28' E 006°09'0 0.0
2017-Jul-20 12:58N 62°28' E 006°09'0 0.0
2017-Jul-20 12:28N 62°28' E 006°09'0 0.0
2017-Jul-20 11:58N 62°28' E 006°09'0 0.0
2017-Jul-20 11:28N 62°28' E 006°09'0 0.0
2017-Jul-20 10:58N 62°28' E 006°09'0 0.0
2017-Jul-20 10:28N 62°28' E 006°09'0 0.0
2017-Jul-20 09:58N 62°28' E 006°09'0 0.0
2017-Jul-20 09:28N 62°28' E 006°09'0 0.0
2017-Jul-20 08:58N 62°28' E 006°09'0 0.0
2017-Jul-20 08:28N 62°28' E 006°09'0 0.0
2017-Jul-20 07:58N 62°28' E 006°09'0 0.0
2017-Jul-20 07:28N 62°28' E 006°09'0 0.0
2017-Jul-20 06:58N 62°28' E 006°09'0 0.0
2017-Jul-20 06:28N 62°28' E 006°09'0 0.0
2017-Jul-20 05:58N 62°28' E 006°09'0 0.0
2017-Jul-20 05:28N 62°28' E 006°09'0 0.0
2017-Jul-20 04:58N 62°28' E 006°09'0 0.0
2017-Jul-20 04:28N 62°28' E 006°09'0 0.0
2017-Jul-20 03:58N 62°28' E 006°09'0 0.0
2017-Jul-20 03:28N 62°28' E 006°09'0 0.0
2017-Jul-20 02:58N 62°28' E 006°09'0 0.0
2017-Jul-20 02:28N 62°28' E 006°09'0 0.0
2017-Jul-20 01:58N 62°28' E 006°09'0 0.0
2017-Jul-20 01:28N 62°28' E 006°09'0 0.0
2017-Jul-20 00:58N 62°28' E 006°09'0 0.0
2017-Jul-20 00:28N 62°28' E 006°09'0 0.0
2017-Jul-19 23:58N 62°28' E 006°09'0 0.0
2017-Jul-19 23:28N 62°28' E 006°09'0 0.0
2017-Jul-19 22:58N 62°28' E 006°09'0 0.0
2017-Jul-19 22:28N 62°28' E 006°09'0 0.0
2017-Jul-19 21:58N 62°28' E 006°09'0 0.0
2017-Jul-19 21:28N 62°28' E 006°09'0 0.0
2017-Jul-19 20:58N 62°28' E 006°09'0 0.0
2017-Jul-19 20:28N 62°28' E 006°09'0 0.0
2017-Jul-19 19:58N 62°28' E 006°09'0 0.0
2017-Jul-19 19:28N 62°28' E 006°09'0 0.0
2017-Jul-19 19:00N 62°28' E 006°09'1 2.8
2017-Jul-19 18:30N 62°27' E 006°08'3 6.5
2017-Jul-19 18:00N 62°30' E 006°09'510.1
2017-Jul-19 17:31N 62°35' E 006°13'611.6
2017-Jul-19 17:00N 62°38' E 006°23'612.0
2017-Jul-19 16:30N 62°43' E 006°30'612.0
2017-Jul-19 16:00N 62°48' E 006°37'611.9
2017-Jul-19 15:31N 62°54' E 006°44'611.8
2017-Jul-19 15:00N 62°58' E 006°52'611.4
2017-Jul-19 14:30N 63°00' E 007°03'611.5
2017-Jul-19 14:01N 63°02' E 007°15'611.7
2017-Jul-19 13:31N 63°05' E 007°27'611.7
2017-Jul-19 13:01N 63°09' E 007°37'611.6
2017-Jul-19 12:31N 63°12' E 007°48'611.4
2017-Jul-19 12:01N 63°14' E 007°59'611.5
2017-Jul-19 11:30N 63°17' E 008°11'611.3
2017-Jul-19 11:00N 63°21' E 008°20'611.1
2017-Jul-19 10:31N 63°24' E 008°30'611.2
2017-Jul-19 10:00N 63°26' E 008°42'611.3
2017-Jul-19 09:30N 63°28' E 008°54'611.3
2017-Jul-19 09:00N 63°30' E 009°06'510.6
2017-Jul-19 08:30N 63°33' E 009°15'511.1
2017-Jul-19 08:01N 63°39' E 009°16'611.1
2017-Jul-19 07:30N 63°44' E 009°16'510.8
2017-Jul-19 07:00N 63°49' E 009°19'510.9
2017-Jul-19 06:31N 63°54' E 009°24'611.0
2017-Jul-19 06:00N 63°59' E 009°30'611.4
2017-Jul-19 05:30N 64°04' E 009°38'611.1
2017-Jul-19 05:00N 64°08' E 009°46'611.2
2017-Jul-19 04:30N 64°12' E 009°56'611.1
2017-Jul-19 04:00N 64°16' E 010°04'510.7
2017-Jul-19 03:31N 64°21' E 010°09'510.9
2017-Jul-19 03:00N 64°26' E 010°15'611.3
2017-Jul-19 02:30N 64°31' E 010°19'611.4
2017-Jul-19 02:00N 64°37' E 010°21'611.4
2017-Jul-19 01:30N 64°42' E 010°22'611.5
2017-Jul-19 01:00N 64°48' E 010°23'611.5
2017-Jul-19 00:30N 64°54' E 010°26'611.1
2017-Jul-19 00:00N 64°59' E 010°30'611.2
2017-Jul-18 23:30N 65°03' E 010°37'611.0
2017-Jul-18 23:00N 65°08' E 010°46'510.8
2017-Jul-18 22:30N 65°10' E 010°58'510.9
2017-Jul-18 22:00N 65°13' E 011°08'611.1
2017-Jul-18 21:30N 65°18' E 011°16'611.3
2017-Jul-18 21:00N 65°22' E 011°23'611.1
2017-Jul-18 20:30N 65°26' E 011°34'611.1
2017-Jul-18 20:00N 65°29' E 011°45'611.2
2017-Jul-18 19:30N 65°32' E 011°56'611.3
2017-Jul-18 19:00N 65°35' E 012°08'611.5
2017-Jul-18 18:30N 65°40' E 012°14'611.6
2017-Jul-18 18:00N 65°46' E 012°18'611.4
2017-Jul-18 17:30N 65°51' E 012°22'510.7
2017-Jul-18 17:00N 65°56' E 012°24'611.2
2017-Jul-18 16:30N 66°01' E 012°33'611.3
2017-Jul-18 16:00N 66°05' E 012°41'611.1
2017-Jul-18 15:30N 66°10' E 012°49'611.1
2017-Jul-18 15:00N 66°15' E 012°54'1211.6
2017-Jul-18 14:00N 66°26' E 012°59'611.1
2017-Jul-18 13:30N 66°32' E 012°57'5 9.8
2017-Jul-18 13:00N 66°36' E 013°04'611.5
2017-Jul-18 12:30N 66°41' E 013°09'611.3
2017-Jul-18 12:00N 66°47' E 013°14'510.7
2017-Jul-18 11:30N 66°51' E 013°20'510.6
2017-Jul-18 11:00N 66°55' E 013°29'4 8.4
2017-Jul-18 10:30N 66°58' E 013°36'510.5
2017-Jul-18 10:00N 67°01' E 013°47'611.0
2017-Jul-18 09:30N 67°06' E 013°57'511.0
2017-Jul-18 09:00N 67°10' E 014°04'611.0
2017-Jul-18 08:30N 67°14' E 014°14'5 9.0
2017-Jul-18 08:00N 67°17' E 014°23'0 0.1
2017-Jul-18 07:30N 67°17' E 014°23'0 0.0
2017-Jul-18 07:00N 67°17' E 014°23'0 0.0
2017-Jul-18 06:30N 67°17' E 014°23'0 0.0
2017-Jul-18 05:59N 67°17' E 014°23'0 0.0
2017-Jul-18 05:30N 67°17' E 014°23'0 0.0
2017-Jul-18 05:00N 67°17' E 014°23'0 0.0
2017-Jul-18 04:30N 67°17' E 014°23'0 0.0
2017-Jul-18 04:00N 67°17' E 014°23'0 0.0
2017-Jul-18 03:30N 67°17' E 014°23'0 0.0
2017-Jul-18 03:00N 67°17' E 014°23'0 0.0
2017-Jul-18 02:29N 67°17' E 014°23'0 0.0
2017-Jul-18 01:59N 67°17' E 014°23'0 0.0
2017-Jul-18 01:29N 67°17' E 014°23'0 0.0
2017-Jul-18 00:59N 67°17' E 014°23'0 0.0
2017-Jul-18 00:30N 67°17' E 014°23'0 0.0
2017-Jul-18 00:00N 67°17' E 014°23'0 0.0
2017-Jul-17 23:30N 67°17' E 014°23'0 0.0
2017-Jul-17 23:00N 67°17' E 014°23'0 0.0
2017-Jul-17 22:30N 67°17' E 014°23'0 0.0
2017-Jul-17 22:00N 67°17' E 014°23'0 0.0
2017-Jul-17 21:29N 67°17' E 014°23'0 0.0
2017-Jul-17 21:00N 67°17' E 014°23'0 0.0
2017-Jul-17 20:29N 67°17' E 014°23'0 0.0
2017-Jul-17 19:59N 67°17' E 014°23'0 0.0
2017-Jul-17 19:29N 67°17' E 014°23'0 0.0
2017-Jul-17 18:59N 67°17' E 014°23'0 0.0
2017-Jul-17 18:29N 67°17' E 014°23'0 0.0
2017-Jul-17 17:59N 67°17' E 014°23'0 0.0
2017-Jul-17 17:29N 67°17' E 014°23'0 0.0
2017-Jul-17 16:59N 67°17' E 014°23'0 0.0
2017-Jul-17 16:29N 67°17' E 014°23'0 0.3
2017-Jul-17 16:00N 67°17' E 014°23'1 1.1
2017-Jul-17 15:28N 67°18' E 014°24'0 0.0
2017-Jul-17 14:58N 67°18' E 014°24'0 0.0
2017-Jul-17 14:28N 67°18' E 014°24'0 0.0
2017-Jul-17 13:58N 67°18' E 014°24'0 0.6
2017-Jul-17 13:30N 67°17' E 014°23'1 2.0
2017-Jul-17 13:00N 67°18' E 014°22'510.4
2017-Jul-17 12:31N 67°23' E 014°23'1 1.6
2017-Jul-17 11:59N 67°24' E 014°24'0 0.0
2017-Jul-17 11:29N 67°24' E 014°24'0 0.0
2017-Jul-17 10:59N 67°24' E 014°24'0 0.0
2017-Jul-17 10:29N 67°24' E 014°24'0 0.1
2017-Jul-17 09:59N 67°24' E 014°24'0 0.0
2017-Jul-17 09:30N 67°24' E 014°24'5 9.1
2017-Jul-17 09:00N 67°28' E 014°29'510.8
2017-Jul-17 08:30N 67°34' E 014°31'611.0
2017-Jul-17 08:00N 67°39' E 014°33'510.9
2017-Jul-17 07:30N 67°43' E 014°42'510.6
2017-Jul-17 07:00N 67°46' E 014°55'2 3.6
2017-Jul-17 06:30N 67°47' E 014°59'0 0.0
2017-Jul-17 06:00N 67°47' E 014°59'0 0.0
2017-Jul-17 05:30N 67°47' E 014°59'0 0.0
2017-Jul-17 05:00N 67°47' E 014°59'0 0.0
2017-Jul-17 04:30N 67°47' E 014°59'0 0.0
2017-Jul-17 03:57N 67°47' E 014°59'0 0.0
2017-Jul-17 03:27N 67°47' E 014°59'0 0.0
2017-Jul-17 03:00N 67°47' E 014°59'0 0.0
2017-Jul-17 02:30N 67°47' E 014°59'0 0.0
2017-Jul-17 02:00N 67°47' E 014°59'0 0.0
2017-Jul-17 01:30N 67°47' E 014°59'0 0.0
2017-Jul-17 01:00N 67°47' E 014°59'0 0.0
2017-Jul-17 00:30N 67°47' E 014°59'0 0.0
2017-Jul-17 00:00N 67°47' E 014°59'0 0.0
2017-Jul-16 23:30N 67°47' E 014°59'0 0.0
2017-Jul-16 23:00N 67°47' E 014°59'0 0.0
2017-Jul-16 22:30N 67°47' E 014°59'0 0.0
2017-Jul-16 22:00N 67°47' E 014°59'0 0.0
2017-Jul-16 21:30N 67°47' E 014°59'0 0.0
2017-Jul-16 21:00N 67°47' E 014°59'0 0.0
2017-Jul-16 20:27N 67°47' E 014°59'0 0.0
2017-Jul-16 20:00N 67°47' E 014°59'0 0.0
2017-Jul-16 19:30N 67°47' E 014°59'0 0.0
2017-Jul-16 18:57N 67°47' E 014°59'0 0.0
2017-Jul-16 18:27N 67°47' E 014°59'0 0.0
2017-Jul-16 18:00N 67°47' E 014°59'0 0.0
2017-Jul-16 17:30N 67°47' E 014°59'0 0.0
2017-Jul-16 16:59N 67°47' E 014°59'0 0.0
2017-Jul-16 16:30N 67°47' E 014°59'0 0.0
2017-Jul-16 16:00N 67°47' E 014°59'0 0.1
2017-Jul-16 15:30N 67°47' E 014°59'1 3.0
2017-Jul-16 15:00N 67°46' E 014°55'2 3.5
2017-Jul-16 14:30N 67°46' E 014°51'3 5.1
2017-Jul-16 14:00N 67°46' E 014°44'4 8.6
2017-Jul-16 13:30N 67°46' E 014°32'4 8.3
2017-Jul-16 13:00N 67°50' E 014°37'4 7.9
2017-Jul-16 12:30N 67°51' E 014°47'1 1.4
2017-Jul-16 11:58N 67°51' E 014°48'0 0.0
2017-Jul-16 11:28N 67°51' E 014°48'0 0.0
2017-Jul-16 10:58N 67°51' E 014°48'0 0.0
2017-Jul-16 10:28N 67°51' E 014°48'0 0.0
2017-Jul-16 09:58N 67°51' E 014°48'0 0.0
2017-Jul-16 09:28N 67°51' E 014°48'0 0.0
2017-Jul-16 08:58N 67°51' E 014°48'0 0.0
2017-Jul-16 08:28N 67°51' E 014°48'0 0.2
2017-Jul-16 08:00N 67°51' E 014°48'1 2.7
2017-Jul-16 07:30N 67°52' E 014°46'510.1
2017-Jul-16 07:00N 67°56' E 014°40'611.1
2017-Jul-16 06:30N 68°01' E 014°32'611.0
2017-Jul-16 06:00N 68°06' E 014°24'510.2
2017-Jul-16 05:30N 68°10' E 014°15'1 1.2
2017-Jul-16 04:58N 68°10' E 014°13'0 0.0
2017-Jul-16 04:31N 68°10' E 014°13'0 0.3
2017-Jul-16 03:57N 68°10' E 014°14'0 0.0
2017-Jul-16 03:31N 68°10' E 014°14'0 0.2
2017-Jul-16 03:00N 68°10' E 014°14'0 0.0
2017-Jul-16 02:27N 68°10' E 014°14'0 0.0
2017-Jul-16 02:01N 68°10' E 014°14'0 0.0
2017-Jul-16 01:30N 68°10' E 014°14'0 0.0
2017-Jul-16 01:00N 68°10' E 014°14'0 0.0
2017-Jul-16 00:30N 68°10' E 014°14'0 0.0
2017-Jul-16 00:00N 68°10' E 014°14'0 0.0
2017-Jul-15 23:30N 68°10' E 014°14'0 0.0
2017-Jul-15 23:00N 68°10' E 014°14'0 0.0
2017-Jul-15 22:30N 68°10' E 014°14'0 0.0
2017-Jul-15 22:00N 68°10' E 014°14'0 0.1
2017-Jul-15 21:30N 68°10' E 014°14'0 0.0
2017-Jul-15 21:00N 68°10' E 014°14'0 0.0
2017-Jul-15 20:30N 68°10' E 014°14'0 0.0
2017-Jul-15 20:00N 68°10' E 014°14'0 0.0
2017-Jul-15 19:30N 68°10' E 014°14'0 0.0
2017-Jul-15 19:00N 68°10' E 014°14'0 0.0
2017-Jul-15 18:30N 68°10' E 014°14'0 0.0
2017-Jul-15 18:00N 68°10' E 014°14'0 0.0
2017-Jul-15 17:30N 68°10' E 014°14'0 0.0
2017-Jul-15 17:00N 68°10' E 014°14'0 0.0
2017-Jul-15 16:30N 68°10' E 014°14'0 0.0
2017-Jul-15 16:00N 68°10' E 014°14'0 0.0
2017-Jul-15 15:30N 68°10' E 014°14'0 0.0
2017-Jul-15 15:00N 68°10' E 014°14'0 0.0
2017-Jul-15 14:00N 68°10' E 014°14'0 0.0
2017-Jul-15 13:30N 68°10' E 014°14'0 0.0
2017-Jul-15 13:00N 68°10' E 014°14'0 0.0
2017-Jul-15 12:30N 68°10' E 014°14'0 0.0
2017-Jul-15 12:00N 68°10' E 014°14'0 0.0
2017-Jul-15 11:30N 68°10' E 014°14'0 0.0
2017-Jul-15 11:00N 68°10' E 014°14'0 0.0
2017-Jul-15 10:30N 68°10' E 014°14'0 0.0
2017-Jul-15 10:00N 68°10' E 014°14'0 0.0
2017-Jul-15 09:30N 68°10' E 014°14'0 0.0
2017-Jul-15 09:00N 68°10' E 014°14'0 0.0
2017-Jul-15 08:30N 68°10' E 014°14'0 0.0
2017-Jul-15 08:00N 68°10' E 014°14'0 0.0
2017-Jul-15 07:30N 68°10' E 014°14'0 0.0
2017-Jul-15 07:00N 68°10' E 014°14'0 0.0
2017-Jul-15 06:30N 68°10' E 014°14'0 0.0
2017-Jul-15 06:00N 68°10' E 014°14'0 0.0
2017-Jul-15 05:30N 68°10' E 014°14'0 0.0
2017-Jul-15 05:00N 68°10' E 014°14'0 0.0
2017-Jul-15 04:30N 68°10' E 014°14'0 0.0
2017-Jul-15 04:00N 68°10' E 014°14'0 0.0
2017-Jul-15 03:30N 68°10' E 014°14'0 0.0
2017-Jul-15 03:00N 68°10' E 014°14'0 0.0
2017-Jul-15 02:30N 68°10' E 014°14'0 0.0
2017-Jul-15 02:00N 68°10' E 014°14'0 0.0
2017-Jul-15 01:30N 68°10' E 014°14'0 0.0
2017-Jul-15 01:00N 68°10' E 014°14'0 0.0
2017-Jul-15 00:30N 68°10' E 014°14'0 0.0
2017-Jul-15 00:00N 68°10' E 014°14'0 0.0
2017-Jul-14 23:30N 68°10' E 014°14'0 0.0
2017-Jul-14 23:00N 68°10' E 014°14'0 0.0
2017-Jul-14 22:30N 68°10' E 014°14'0 0.0
2017-Jul-14 22:00N 68°10' E 014°14'0 0.0
2017-Jul-14 21:30N 68°10' E 014°14'0 0.0
2017-Jul-14 21:00N 68°10' E 014°14'0 0.0
2017-Jul-14 20:30N 68°10' E 014°14'0 0.0
2017-Jul-14 20:00N 68°10' E 014°14'0 0.0
2017-Jul-14 19:30N 68°10' E 014°14'0 0.0
2017-Jul-14 19:00N 68°10' E 014°14'0 0.0
2017-Jul-14 18:30N 68°10' E 014°14'0 0.0
2017-Jul-14 18:00N 68°10' E 014°14'0 0.2
2017-Jul-14 17:30N 68°10' E 014°14'4 7.6
2017-Jul-14 17:00N 68°07' E 014°07'510.7
2017-Jul-14 16:30N 68°05' E 013°54'611.0
2017-Jul-14 16:00N 68°04' E 013°40'4 8.5
2017-Jul-14 15:30N 68°07' E 013°34'0 0.1
2017-Jul-14 14:59N 68°07' E 013°33'1 2.5
2017-Jul-14 14:30N 68°07' E 013°36'5 9.7
2017-Jul-14 14:00N 68°02' E 013°32'11 2.8
2017-Jul-14 09:58N 67°56' E 013°06'4 7.8
2017-Jul-14 09:30N 67°54' E 013°12'510.7
2017-Jul-14 09:01N 67°49' E 013°21'510.6
2017-Jul-14 08:30N 67°45' E 013°30'510.9
2017-Jul-14 08:00N 67°41' E 013°39'510.8
2017-Jul-14 07:30N 67°37' E 013°49'510.6
2017-Jul-14 07:00N 67°33' E 013°58'510.4
2017-Jul-14 06:30N 67°29' E 014°06'5 9.9
2017-Jul-14 06:01N 67°24' E 014°08'510.6
2017-Jul-14 05:31N 67°20' E 014°15'4 7.3
2017-Jul-14 05:00N 67°17' E 014°22'1 1.4
2017-Jul-14 04:31N 67°18' E 014°24'0 0.0
2017-Jul-14 04:01N 67°18' E 014°24'0 0.0
2017-Jul-14 03:31N 67°18' E 014°24'0 0.0
2017-Jul-14 03:00N 67°18' E 014°24'0 0.0
2017-Jul-14 02:31N 67°18' E 014°24'0 0.0
2017-Jul-14 02:01N 67°18' E 014°24'0 0.0
2017-Jul-14 01:31N 67°18' E 014°24'0 0.0
2017-Jul-14 01:01N 67°18' E 014°24'0 0.0
2017-Jul-14 00:31N 67°18' E 014°24'0 0.0
2017-Jul-14 00:01N 67°18' E 014°24'0 0.0
2017-Jul-13 23:31N 67°18' E 014°24'0 0.0
2017-Jul-13 23:00N 67°18' E 014°24'0 0.0
2017-Jul-13 22:31N 67°18' E 014°24'0 0.0
2017-Jul-13 22:01N 67°18' E 014°24'0 0.0
2017-Jul-13 21:31N 67°18' E 014°24'0 0.0
2017-Jul-13 21:00N 67°18' E 014°24'0 0.0
2017-Jul-13 20:30N 67°18' E 014°24'0 0.0
2017-Jul-13 20:01N 67°18' E 014°24'0 0.0
2017-Jul-13 19:31N 67°18' E 014°24'0 0.0
2017-Jul-13 19:01N 67°18' E 014°24'0 0.0
2017-Jul-13 18:30N 67°18' E 014°24'  

Dump ship's entire track history